createdAt,value
2023-01-22T00:00:13.966Z,90.60
2023-01-22T00:02:44.525Z,90.60
2023-01-22T00:05:13.679Z,90.60
2023-01-22T00:07:42.857Z,90.50
2023-01-22T00:10:13.164Z,90.50
2023-01-22T00:12:42.208Z,90.50
2023-01-22T00:15:11.644Z,90.60
2023-01-22T00:17:40.723Z,90.60
2023-01-22T00:20:14.148Z,90.60
2023-01-22T00:22:43.188Z,90.50
2023-01-22T00:25:15.901Z,90.60
2023-01-22T00:27:44.997Z,90.60
2023-01-22T00:30:14.539Z,90.60
2023-01-22T00:32:43.658Z,90.60
2023-01-22T00:35:14.439Z,90.50
2023-01-22T00:37:43.527Z,90.50
2023-01-22T00:40:16.569Z,90.50
2023-01-22T00:42:45.949Z,90.50
2023-01-22T00:45:16.124Z,90.50
2023-01-22T00:47:45.239Z,90.60
2023-01-22T00:50:16.031Z,90.60
2023-01-22T00:52:47.574Z,90.60
2023-01-22T00:55:16.727Z,90.60
2023-01-22T00:57:45.805Z,90.50
2023-01-22T01:00:18.429Z,90.90
2023-01-22T01:03:06.677Z,90.50
2023-01-22T01:05:37.286Z,90.50
2023-01-22T01:08:06.699Z,90.50
2023-01-22T01:10:35.715Z,90.50
2023-01-22T01:13:04.779Z,90.50
2023-01-22T01:15:34.865Z,90.50
2023-01-22T01:18:04.123Z,90.50
2023-01-22T01:20:33.213Z,90.90
2023-01-22T01:23:03.614Z,90.50
2023-01-22T01:25:32.599Z,90.50
2023-01-22T01:28:01.783Z,90.50
2023-01-22T01:30:30.971Z,90.50
2023-01-22T01:32:59.978Z,90.50
2023-01-22T01:35:29.014Z,90.50
2023-01-22T01:37:58.289Z,90.50
2023-01-22T01:40:29.353Z,90.50
2023-01-22T01:42:58.376Z,90.50
2023-01-22T01:45:30.096Z,90.50
2023-01-22T01:48:14.190Z,90.40
2023-01-22T01:50:46.604Z,90.40
2023-01-22T01:53:15.857Z,90.40
2023-01-22T01:55:46.439Z,90.40
2023-01-22T01:58:21.606Z,90.40
2023-01-22T02:00:55.129Z,90.40
2023-01-22T02:03:24.596Z,90.30
2023-01-22T02:05:53.620Z,90.40
2023-01-22T02:08:22.817Z,90.40
2023-01-22T02:10:55.201Z,90.40
2023-01-22T02:13:28.897Z,90.40
2023-01-22T02:15:58.030Z,90.40
2023-01-22T02:18:29.147Z,90.30
2023-01-22T02:21:01.582Z,90.50
2023-01-22T02:23:32.367Z,90.40
2023-01-22T02:26:02.009Z,90.40
2023-01-22T02:28:32.264Z,90.40
2023-01-22T02:31:01.471Z,90.50
2023-01-22T02:33:30.814Z,90.50
2023-01-22T02:36:01.237Z,90.50
2023-01-22T02:38:30.335Z,90.50
2023-01-22T02:41:01.705Z,90.50
2023-01-22T02:43:31.881Z,90.50
2023-01-22T02:46:01.020Z,90.50
2023-01-22T02:48:31.121Z,90.50
2023-01-22T02:51:01.992Z,90.50
2023-01-22T02:53:31.591Z,90.50
2023-01-22T02:56:01.599Z,90.50
2023-01-22T02:58:30.636Z,90.50
2023-01-22T03:01:18.916Z,90.50
2023-01-22T03:03:50.121Z,90.50
2023-01-22T03:06:21.730Z,90.50
2023-01-22T03:08:51.843Z,90.50
2023-01-22T03:11:21.378Z,90.50
2023-01-22T03:14:09.712Z,90.60
2023-01-22T03:16:56.890Z,90.60
2023-01-22T03:19:44.113Z,90.50
2023-01-22T03:22:21.584Z,90.60
2023-01-22T03:24:52.694Z,90.50
2023-01-22T03:27:27.100Z,90.60
2023-01-22T03:29:57.107Z,90.60
2023-01-22T03:32:26.467Z,90.60
2023-01-22T03:34:55.608Z,90.50
2023-01-22T03:37:27.506Z,90.50
2023-01-22T03:39:58.013Z,90.50
2023-01-22T03:42:37.078Z,90.50
2023-01-22T03:45:07.244Z,90.50
2023-01-22T03:47:39.387Z,90.50
2023-01-22T03:50:22.964Z,90.50
2023-01-22T03:52:53.925Z,90.50
2023-01-22T03:55:25.357Z,90.50
2023-01-22T03:57:55.662Z,90.50
2023-01-22T04:00:24.942Z,90.50
2023-01-22T04:02:54.927Z,90.50
2023-01-22T04:05:28.933Z,90.50
2023-01-22T04:08:00.487Z,90.40
2023-01-22T04:10:32.431Z,90.40
2023-01-22T04:13:03.476Z,90.40
2023-01-22T04:15:32.887Z,90.40
2023-01-22T04:18:06.084Z,90.30
2023-01-22T04:21:01.082Z,90.30
2023-01-22T04:23:43.336Z,90.30
2023-01-22T04:26:12.801Z,90.40
2023-01-22T04:28:41.833Z,90.40
2023-01-22T04:31:11.324Z,90.40
2023-01-22T04:33:46.183Z,90.40
2023-01-22T04:36:22.815Z,90.40
2023-01-22T04:38:53.373Z,90.40
2023-01-22T04:41:22.400Z,90.30
2023-01-22T04:43:51.491Z,90.40
2023-01-22T04:46:21.443Z,90.40
2023-01-22T04:48:50.544Z,90.40
2023-01-22T04:51:21.108Z,90.40
2023-01-22T04:53:50.237Z,90.40
2023-01-22T04:56:20.793Z,90.40
2023-01-22T04:58:49.822Z,90.40
2023-01-22T05:01:19.007Z,90.40
2023-01-22T05:03:48.383Z,90.40
2023-01-22T05:06:17.380Z,90.40
2023-01-22T05:08:46.406Z,90.40
2023-01-22T05:11:15.699Z,90.40
2023-01-22T05:13:59.427Z,90.40
2023-01-22T05:16:28.597Z,90.40
2023-01-22T05:18:57.888Z,90.40
2023-01-22T05:21:27.357Z,90.50
2023-01-22T05:23:56.480Z,90.50
2023-01-22T05:26:28.672Z,90.50
2023-01-22T05:29:06.311Z,90.50
2023-01-22T05:31:54.510Z,90.50
2023-01-22T05:34:35.793Z,90.50
2023-01-22T05:37:05.065Z,90.50
2023-01-22T05:39:35.138Z,90.40
2023-01-22T05:42:06.883Z,90.40
2023-01-22T05:44:37.869Z,90.50
2023-01-22T05:47:06.963Z,90.50
2023-01-22T05:49:50.330Z,90.60
2023-01-22T05:52:19.494Z,90.50
2023-01-22T05:54:49.255Z,90.60
2023-01-22T05:57:19.463Z,90.50
2023-01-22T05:59:49.885Z,90.50
2023-01-22T06:02:19.098Z,90.50
2023-01-22T06:04:48.175Z,90.50
2023-01-22T06:07:27.265Z,90.50
2023-01-22T06:09:56.610Z,90.50
2023-01-22T06:12:26.256Z,90.50
2023-01-22T06:14:56.983Z,90.50
2023-01-22T06:17:26.326Z,90.60
2023-01-22T06:19:57.217Z,90.60
2023-01-22T06:22:26.225Z,90.60
2023-01-22T06:24:59.083Z,90.50
2023-01-22T06:27:39.778Z,90.60
2023-01-22T06:30:11.905Z,90.50
2023-01-22T06:32:41.167Z,90.50
2023-01-22T06:35:14.239Z,90.50
2023-01-22T06:37:43.328Z,90.50
2023-01-22T06:40:13.730Z,90.60
2023-01-22T06:42:46.643Z,90.60
2023-01-22T06:45:17.312Z,90.60
2023-01-22T06:47:51.937Z,90.60
2023-01-22T06:50:21.041Z,90.60
2023-01-22T06:52:50.368Z,90.60
2023-01-22T06:55:19.501Z,90.60
2023-01-22T06:57:48.758Z,90.60
2023-01-22T07:00:20.965Z,90.60
2023-01-22T07:02:50.833Z,90.60
2023-01-22T07:05:20.972Z,90.60
2023-01-22T07:07:50.158Z,90.70
2023-01-22T07:10:19.777Z,90.70
2023-01-22T07:12:49.375Z,90.70
2023-01-22T07:15:20.009Z,90.70
2023-01-22T07:17:52.229Z,90.70
2023-01-22T07:20:22.513Z,90.80
2023-01-22T07:22:52.059Z,90.80
2023-01-22T07:25:23.556Z,90.80
2023-01-22T07:27:52.577Z,90.80
2023-01-22T07:30:23.353Z,90.80
2023-01-22T07:32:52.429Z,90.80
2023-01-22T07:35:21.835Z,90.80
2023-01-22T07:37:53.867Z,90.80
2023-01-22T07:40:24.376Z,90.80
2023-01-22T07:42:54.237Z,90.80
2023-01-22T07:45:27.398Z,90.80
2023-01-22T07:47:58.940Z,90.80
2023-01-22T07:50:29.865Z,90.80
2023-01-22T07:53:01.017Z,90.80
2023-01-22T07:55:31.402Z,90.90
2023-01-22T07:58:01.712Z,90.90
2023-01-22T08:00:32.901Z,90.80
2023-01-22T08:03:02.089Z,90.90
2023-01-22T08:05:31.255Z,91.00
2023-01-22T08:08:00.667Z,91.10
2023-01-22T08:10:30.041Z,91.10
2023-01-22T08:12:59.367Z,91.20
2023-01-22T08:15:28.476Z,91.20
2023-01-22T08:17:58.921Z,91.30
2023-01-22T08:20:28.002Z,91.30
2023-01-22T08:22:59.619Z,91.30
2023-01-22T08:25:29.296Z,91.30
2023-01-22T08:27:58.433Z,91.40
2023-01-22T08:30:27.552Z,91.40
2023-01-22T08:33:00.646Z,91.50
2023-01-22T08:35:29.705Z,91.50
2023-01-22T08:37:59.840Z,91.60
2023-01-22T08:40:29.484Z,91.60
2023-01-22T08:42:58.771Z,91.60
2023-01-22T08:45:28.169Z,91.60
2023-01-22T08:47:59.859Z,91.70
2023-01-22T08:50:30.482Z,91.70
2023-01-22T08:52:59.622Z,91.70
2023-01-22T08:55:28.769Z,91.70
2023-01-22T08:57:58.955Z,91.70
2023-01-22T09:00:28.309Z,91.70
2023-01-22T09:03:01.033Z,91.70
2023-01-22T09:05:31.429Z,91.70
2023-01-22T09:08:00.537Z,91.70
2023-01-22T09:10:29.583Z,91.80
2023-01-22T09:13:00.595Z,91.80
2023-01-22T09:15:29.807Z,91.80
2023-01-22T09:18:00.193Z,91.80
2023-01-22T09:20:30.600Z,91.80
2023-01-22T09:22:59.777Z,91.80
2023-01-22T09:25:29.342Z,91.90
2023-01-22T09:28:00.165Z,91.90
2023-01-22T09:30:30.960Z,91.90
2023-01-22T09:33:00.286Z,91.90
2023-01-22T09:35:30.720Z,92.00
2023-01-22T09:37:59.703Z,92.00
2023-01-22T09:40:31.609Z,92.10
2023-01-22T09:43:06.100Z,92.20
2023-01-22T09:45:40.117Z,92.20
2023-01-22T09:48:13.875Z,92.20
2023-01-22T09:50:45.096Z,92.20
2023-01-22T09:53:17.952Z,92.30
2023-01-22T09:55:53.456Z,92.40
2023-01-22T09:58:24.561Z,92.40
2023-01-22T10:01:00.397Z,92.40
2023-01-22T10:03:34.779Z,92.40
2023-01-22T10:06:12.526Z,92.40
2023-01-22T10:08:58.710Z,92.40
2023-01-22T10:11:27.963Z,92.40
2023-01-22T10:13:59.439Z,92.30
2023-01-22T10:16:29.027Z,92.30
2023-01-22T10:19:02.967Z,92.40
2023-01-22T10:21:37.636Z,92.40
2023-01-22T10:24:09.041Z,92.40
2023-01-22T10:26:40.918Z,92.40
2023-01-22T10:29:14.157Z,92.40
2023-01-22T10:31:48.858Z,92.40
2023-01-22T10:34:22.986Z,92.50
2023-01-22T10:36:54.970Z,92.80
2023-01-22T10:39:24.017Z,92.50
2023-01-22T10:42:01.161Z,92.50
2023-01-22T10:44:34.114Z,92.50
2023-01-22T10:47:09.900Z,92.50
2023-01-22T10:49:38.937Z,92.50
2023-01-22T10:52:23.267Z,92.50
2023-01-22T10:54:56.332Z,92.50
2023-01-22T10:57:31.544Z,92.40
2023-01-22T11:00:18.702Z,92.40
2023-01-22T11:02:49.719Z,92.40
2023-01-22T11:05:20.420Z,92.40
2023-01-22T11:07:53.670Z,92.40
2023-01-22T11:10:27.151Z,92.30
2023-01-22T11:13:00.445Z,92.30
2023-01-22T11:15:40.150Z,92.30
2023-01-22T11:18:13.086Z,92.20
2023-01-22T11:20:48.124Z,92.20
2023-01-22T11:23:24.039Z,92.30
2023-01-22T11:26:01.640Z,92.20
2023-01-22T11:28:42.816Z,92.20
2023-01-22T11:31:39.956Z,92.20
2023-01-22T11:34:35.373Z,92.20
2023-01-22T11:37:12.955Z,92.10
2023-01-22T11:40:08.931Z,92.00
2023-01-22T11:42:52.931Z,92.00
2023-01-22T11:45:43.261Z,92.00
2023-01-22T11:48:22.471Z,92.00
2023-01-22T11:50:57.185Z,91.90
2023-01-22T11:53:45.435Z,91.90
2023-01-22T11:56:28.572Z,91.90
2023-01-22T11:59:04.083Z,91.80
2023-01-22T12:01:50.307Z,91.80
2023-01-22T12:05:03.139Z,92.20
2023-01-22T12:07:52.603Z,91.80
2023-01-22T12:10:42.038Z,91.80
2023-01-22T12:13:26.801Z,91.90
2023-01-22T12:16:05.522Z,91.90
2023-01-22T12:19:01.703Z,91.90
2023-01-22T12:21:42.104Z,91.90
2023-01-22T12:24:17.861Z,91.90
2023-01-22T12:26:52.478Z,92.00
2023-01-22T12:29:28.996Z,91.90
2023-01-22T12:32:05.121Z,92.00
2023-01-22T12:34:38.872Z,92.00
2023-01-22T12:37:11.935Z,92.00
2023-01-22T12:39:47.465Z,92.00
2023-01-22T12:42:27.244Z,92.10
2023-01-22T12:45:07.897Z,92.10
2023-01-22T12:47:55.549Z,92.10
2023-01-22T12:50:27.798Z,92.10
2023-01-22T12:53:01.010Z,92.10
2023-01-22T12:55:34.985Z,92.20
2023-01-22T12:58:06.702Z,92.20
2023-01-22T13:00:39.372Z,92.20
2023-01-22T13:03:31.802Z,92.20
2023-01-22T13:06:03.041Z,92.30
2023-01-22T13:08:42.037Z,92.30
2023-01-22T13:11:13.040Z,92.40
2023-01-22T13:13:46.923Z,92.40
2023-01-22T13:16:24.066Z,92.40
2023-01-22T13:18:55.725Z,92.40
2023-01-22T13:21:27.768Z,92.40
2023-01-22T13:24:02.612Z,92.40
2023-01-22T13:26:34.114Z,92.50
2023-01-22T13:29:19.509Z,92.40
2023-01-22T13:31:54.998Z,92.50
2023-01-22T13:34:24.834Z,92.40
2023-01-22T13:36:54.257Z,92.40
2023-01-22T13:39:28.027Z,92.30
2023-01-22T13:41:58.948Z,92.30
2023-01-22T13:44:32.852Z,92.20
2023-01-22T13:47:03.935Z,92.20
2023-01-22T13:49:35.590Z,92.10
2023-01-22T13:52:08.993Z,92.10
2023-01-22T13:54:43.135Z,92.20
2023-01-22T13:57:14.500Z,92.10
2023-01-22T13:59:52.996Z,92.10
2023-01-22T14:02:25.467Z,92.30
2023-01-22T14:04:54.575Z,92.00
2023-01-22T14:07:28.739Z,92.10
2023-01-22T14:10:11.674Z,92.00
2023-01-22T14:12:40.814Z,92.10
2023-01-22T14:15:18.109Z,92.10
2023-01-22T14:17:50.589Z,92.10
2023-01-22T14:20:20.446Z,92.10
2023-01-22T14:22:49.843Z,92.10
2023-01-22T14:25:19.003Z,92.10
2023-01-22T14:27:49.783Z,92.10
2023-01-22T14:30:22.332Z,92.10
2023-01-22T14:32:53.016Z,92.10
2023-01-22T14:35:24.772Z,92.10
2023-01-22T14:37:54.963Z,92.10
2023-01-22T14:40:28.909Z,92.10
2023-01-22T14:43:01.292Z,92.10
2023-01-22T14:45:30.684Z,92.20
2023-01-22T14:48:04.124Z,92.20
2023-01-22T14:50:33.557Z,92.20
2023-01-22T14:53:02.782Z,92.20
2023-01-22T14:55:31.920Z,92.20
2023-01-22T14:58:01.809Z,92.10
2023-01-22T15:00:31.491Z,92.20
2023-01-22T15:03:02.057Z,92.20
2023-01-22T15:05:31.737Z,92.20
2023-01-22T15:08:02.208Z,92.20
2023-01-22T15:10:31.651Z,92.30
2023-01-22T15:13:01.025Z,92.70
2023-01-22T15:15:30.348Z,92.30
2023-01-22T15:17:59.621Z,92.40
2023-01-22T15:20:30.432Z,92.40
2023-01-22T15:22:59.581Z,92.40
2023-01-22T15:25:28.765Z,92.40
2023-01-22T15:27:57.948Z,92.40
2023-01-22T15:30:27.136Z,92.50
2023-01-22T15:32:56.365Z,92.50
2023-01-22T15:35:25.328Z,92.50
2023-01-22T15:37:55.752Z,92.50
2023-01-22T15:40:24.779Z,92.60
2023-01-22T15:42:53.814Z,92.60
2023-01-22T15:45:23.018Z,92.60
2023-01-22T15:47:52.099Z,92.60
2023-01-22T15:50:22.364Z,92.70
2023-01-22T15:52:56.279Z,92.80
2023-01-22T15:55:26.732Z,92.80
2023-01-22T15:57:55.692Z,92.90
2023-01-22T16:00:27.701Z,92.90
2023-01-22T16:02:56.805Z,93.00
2023-01-22T16:05:25.847Z,93.00
2023-01-22T16:07:56.339Z,93.00
2023-01-22T16:10:26.202Z,93.10
2023-01-22T16:12:55.417Z,93.10
2023-01-22T16:15:24.453Z,93.10
2023-01-22T16:17:56.405Z,93.10
2023-01-22T16:20:25.684Z,93.10
2023-01-22T16:22:56.102Z,93.10
2023-01-22T16:25:25.355Z,93.10
2023-01-22T16:27:54.396Z,93.10
2023-01-22T16:30:24.000Z,93.10
2023-01-22T16:32:53.552Z,93.20
2023-01-22T16:35:22.562Z,93.10
2023-01-22T16:37:51.606Z,93.20
2023-01-22T16:40:22.175Z,93.20
2023-01-22T16:42:59.819Z,93.20
2023-01-22T16:45:28.887Z,93.20
2023-01-22T16:47:57.913Z,93.20
2023-01-22T16:50:26.893Z,93.20
2023-01-22T16:52:55.994Z,93.20
2023-01-22T16:55:26.632Z,93.30
2023-01-22T16:57:55.676Z,93.30
2023-01-22T17:00:24.818Z,93.30
2023-01-22T17:02:54.346Z,93.40
2023-01-22T17:05:23.509Z,93.30
2023-01-22T17:07:52.508Z,93.30
2023-01-22T17:10:21.663Z,93.30
2023-01-22T17:12:52.284Z,93.40
2023-01-22T17:15:21.556Z,93.40
2023-01-22T17:17:53.461Z,93.40
2023-01-22T17:20:22.624Z,93.40
2023-01-22T17:22:51.681Z,93.40
2023-01-22T17:25:21.520Z,93.40
2023-01-22T17:27:51.900Z,93.40
2023-01-22T17:30:21.915Z,93.50
2023-01-22T17:32:50.973Z,93.50
2023-01-22T17:35:20.288Z,93.50
2023-01-22T17:37:49.563Z,93.50
2023-01-22T17:40:18.985Z,93.50
2023-01-22T17:42:47.988Z,93.60
2023-01-22T17:45:18.938Z,93.60
2023-01-22T17:47:48.152Z,93.60
2023-01-22T17:50:17.826Z,94.00
2023-01-22T17:52:47.071Z,93.60
2023-01-22T17:55:16.521Z,93.60
2023-01-22T17:57:45.782Z,93.60
2023-01-22T18:00:18.745Z,93.60
2023-01-22T18:02:49.930Z,93.60
2023-01-22T18:05:19.312Z,93.60
2023-01-22T18:07:48.400Z,93.60
2023-01-22T18:10:18.203Z,93.50
2023-01-22T18:12:47.190Z,93.50
2023-01-22T18:15:21.260Z,93.50
2023-01-22T18:17:50.830Z,93.50
2023-01-22T18:20:21.232Z,93.50
2023-01-22T18:22:50.379Z,93.50
2023-01-22T18:25:19.847Z,93.60
2023-01-22T18:27:49.061Z,93.60
2023-01-22T18:30:19.978Z,93.60
2023-01-22T18:32:49.230Z,93.60
2023-01-22T18:35:18.728Z,93.70
2023-01-22T18:37:51.405Z,93.70
2023-01-22T18:40:20.968Z,93.70
2023-01-22T18:42:50.298Z,93.70
2023-01-22T18:45:21.305Z,93.70
2023-01-22T18:47:52.467Z,93.70
2023-01-22T18:50:21.989Z,94.20
2023-01-22T18:52:51.146Z,93.70
2023-01-22T18:55:21.894Z,93.80
2023-01-22T18:57:56.999Z,93.70
2023-01-22T19:00:27.427Z,93.70
2023-01-22T19:02:57.683Z,93.70
2023-01-22T19:05:28.510Z,93.70
2023-01-22T19:07:57.630Z,93.80
2023-01-22T19:10:28.184Z,93.80
2023-01-22T19:12:57.138Z,93.80
2023-01-22T19:15:28.207Z,93.80
2023-01-22T19:17:57.248Z,93.70
2023-01-22T19:20:27.194Z,93.70
2023-01-22T19:22:56.307Z,93.80
2023-01-22T19:25:25.369Z,93.70
2023-01-22T19:27:55.942Z,93.70
2023-01-22T19:30:24.990Z,93.80
2023-01-22T19:32:56.514Z,93.70
2023-01-22T19:35:25.543Z,93.70
2023-01-22T19:37:54.920Z,93.60
2023-01-22T19:40:24.025Z,93.60
2023-01-22T19:42:53.094Z,93.60
2023-01-22T19:45:22.096Z,93.60
2023-01-22T19:47:51.344Z,93.60
2023-01-22T19:50:25.245Z,93.60
2023-01-22T19:52:54.248Z,93.50
2023-01-22T19:55:25.161Z,93.50
2023-01-22T19:57:55.228Z,93.50
2023-01-22T20:00:24.437Z,93.50
2023-01-22T20:02:53.471Z,93.50
2023-01-22T20:05:24.467Z,93.50
2023-01-22T20:07:56.807Z,93.50
2023-01-22T20:10:25.844Z,93.40
2023-01-22T20:12:54.828Z,93.40
2023-01-22T20:15:23.856Z,93.50
2023-01-22T20:17:54.495Z,93.50
2023-01-22T20:20:26.193Z,93.50
2023-01-22T20:22:55.408Z,93.50
2023-01-22T20:25:24.888Z,93.50
2023-01-22T20:27:54.127Z,93.50
2023-01-22T20:30:23.181Z,93.50
2023-01-22T20:32:52.203Z,93.50
2023-01-22T20:35:21.427Z,93.50
2023-01-22T20:37:52.052Z,93.50
2023-01-22T20:40:21.267Z,93.50
2023-01-22T20:42:51.987Z,93.60
2023-01-22T20:45:21.469Z,93.60
2023-01-22T20:47:50.749Z,93.60
2023-01-22T20:50:19.948Z,93.60
2023-01-22T20:52:49.039Z,93.60
2023-01-22T20:55:20.011Z,93.60
2023-01-22T20:57:49.361Z,93.80
2023-01-22T21:00:19.199Z,93.60
2023-01-22T21:02:51.228Z,93.70
2023-01-22T21:05:20.596Z,93.60
2023-01-22T21:07:49.789Z,93.60
2023-01-22T21:10:20.674Z,93.70
2023-01-22T21:12:51.010Z,93.70
2023-01-22T21:15:20.696Z,93.80
2023-01-22T21:17:50.234Z,93.80
2023-01-22T21:20:19.670Z,93.80
2023-01-22T21:22:49.341Z,93.90
2023-01-22T21:25:19.993Z,93.80
2023-01-22T21:27:51.111Z,93.80
2023-01-22T21:30:20.489Z,93.80
2023-01-22T21:32:52.459Z,93.80
2023-01-22T21:35:21.843Z,93.70
2023-01-22T21:37:50.967Z,93.70
2023-01-22T21:40:21.752Z,93.80
2023-01-22T21:43:08.663Z,93.80
2023-01-22T21:45:59.168Z,93.80
2023-01-22T21:48:29.131Z,93.70
2023-01-22T21:50:58.418Z,93.70
2023-01-22T21:53:27.514Z,93.70
2023-01-22T21:55:57.989Z,93.70
2023-01-22T21:58:27.243Z,93.60
2023-01-22T22:00:56.703Z,93.70
2023-01-22T22:03:25.929Z,94.00
2023-01-22T22:06:02.024Z,93.60
2023-01-22T22:08:31.378Z,93.60
2023-01-22T22:11:03.642Z,93.60
2023-01-22T22:13:35.116Z,93.60
2023-01-22T22:16:05.164Z,93.60
2023-01-22T22:18:34.964Z,93.60
2023-01-22T22:21:06.214Z,93.60
2023-01-22T22:23:36.583Z,93.60
2023-01-22T22:26:08.342Z,93.60
2023-01-22T22:28:37.976Z,93.50
2023-01-22T22:31:11.925Z,93.50
2023-01-22T22:33:41.039Z,93.50
2023-01-22T22:36:11.634Z,93.50
2023-01-22T22:38:40.778Z,93.50
2023-01-22T22:41:14.255Z,93.50
2023-01-22T22:43:45.294Z,93.50
2023-01-22T22:46:16.586Z,93.50
2023-01-22T22:48:46.839Z,93.50
2023-01-22T22:51:18.641Z,93.50
2023-01-22T22:53:48.850Z,93.30
2023-01-22T22:56:19.346Z,93.30
2023-01-22T22:58:48.970Z,93.40
2023-01-22T23:01:23.213Z,93.40
2023-01-22T23:03:53.954Z,93.40
2023-01-22T23:06:26.510Z,93.50
2023-01-22T23:09:11.465Z,93.40
2023-01-22T23:11:44.158Z,93.40
2023-01-22T23:14:13.912Z,93.40
2023-01-22T23:16:44.452Z,93.40
2023-01-22T23:19:17.278Z,93.40
2023-01-22T23:21:47.357Z,93.30
2023-01-22T23:24:16.372Z,93.30
2023-01-22T23:26:47.168Z,93.30
2023-01-22T23:29:18.355Z,93.30
2023-01-22T23:31:47.821Z,93.20
2023-01-22T23:34:19.279Z,93.20
2023-01-22T23:36:49.296Z,93.20
2023-01-22T23:39:20.299Z,93.20
2023-01-22T23:41:51.067Z,93.20
2023-01-22T23:44:20.097Z,93.20
2023-01-22T23:46:49.251Z,93.10
2023-01-22T23:49:18.213Z,93.10
2023-01-22T23:51:47.212Z,93.10
2023-01-22T23:54:16.309Z,93.10
2023-01-22T23:56:45.264Z,93.10
2023-01-22T23:59:15.651Z,93.10
